Time;durP1;ratioP1;P1;durP2;ratioP2;P2;SDS_P1;SDS_P2;PMS_P1;PMS_P2;Temp;Humidity;BMP_temperature;BMP_pressure;BME280_temperature;BME280_humidity;BME280_pressure;Samples;Min_cycle;Max_cycle;Signal;HPM_P1;HPM_P2
2021/10/15 00:01:36;;;;;;;1.77;1.67;;;12.50;99.90;;;;;;5097913;28;20463;-81
2021/10/15 00:04:03;;;;;;;1.83;1.02;;;12.50;99.90;;;;;;5097338;28;20956;-80
2021/10/15 00:06:30;;;;;;;1.77;1.67;;;12.40;99.90;;;;;;5097365;28;20200;-82
2021/10/15 00:08:56;;;;;;;4.10;1.05;;;12.40;99.90;;;;;;5097275;28;20198;-81
2021/10/15 00:11:24;;;;;;;0.70;0.70;;;12.40;99.90;;;;;;5097181;28;20217;-80
2021/10/15 00:13:51;;;;;;;0.80;0.55;;;12.40;99.90;;;;;;5098772;28;20204;-80
2021/10/15 00:16:18;;;;;;;0.50;0.40;;;12.40;99.90;;;;;;5096421;28;20228;-80
2021/10/15 00:18:45;;;;;;;0.75;0.75;;;12.40;99.90;;;;;;5096367;28;20201;-81
2021/10/15 00:21:11;;;;;;;0.50;0.40;;;12.40;99.90;;;;;;5095092;28;20214;-80
2021/10/15 00:23:38;;;;;;;0.50;0.40;;;12.30;99.90;;;;;;5095950;28;20194;-82
2021/10/15 00:26:05;;;;;;;0.70;0.60;;;12.30;99.90;;;;;;5095862;28;20809;-81
2021/10/15 00:28:33;;;;;;;0.60;0.60;;;12.30;99.90;;;;;;5098235;28;20209;-80
2021/10/15 00:31:00;;;;;;;2.30;1.27;;;12.30;99.90;;;;;;5099441;28;20227;-81
2021/10/15 00:33:26;;;;;;;1.05;1.05;;;12.20;99.90;;;;;;5100632;28;20808;-81
2021/10/15 00:35:53;;;;;;;5.68;1.63;;;12.10;99.90;;;;;;5099860;28;20201;-79
2021/10/15 00:38:20;;;;;;;3.75;1.60;;;12.10;99.90;;;;;;5099467;28;20227;-81
2021/10/15 00:40:47;;;;;;;2.83;1.52;;;12.00;99.90;;;;;;5099618;28;20611;-82
2021/10/15 00:43:14;;;;;;;1.00;0.90;;;12.00;99.90;;;;;;5099684;28;20204;-81
2021/10/15 00:45:43;;;;;;;0.55;0.50;;;11.90;99.90;;;;;;5099964;28;20202;-81
2021/10/15 00:48:09;;;;;;;1.05;0.75;;;11.90;99.90;;;;;;5099513;28;20196;-82
2021/10/15 00:50:37;;;;;;;2.25;1.98;;;11.90;99.90;;;;;;5099513;28;20216;-82
2021/10/15 00:53:03;;;;;;;0.60;0.60;;;12.00;99.90;;;;;;5099225;28;20228;-81
2021/10/15 00:55:31;;;;;;;4.82;1.35;;;11.90;99.90;;;;;;5099137;28;20201;-82
2021/10/15 00:57:57;;;;;;;3.13;2.15;;;12.00;99.90;;;;;;5100630;28;20208;-78
2021/10/15 01:00:24;;;;;;;1.45;1.35;;;11.90;99.90;;;;;;5098913;28;20546;-81
2021/10/15 01:02:52;;;;;;;0.50;0.40;;;12.00;99.90;;;;;;5105640;28;20502;-79
2021/10/15 01:05:19;;;;;;;10.15;2.08;;;12.00;99.90;;;;;;5101005;28;20707;-81
2021/10/15 01:07:46;;;;;;;0.50;0.40;;;11.90;99.90;;;;;;5098050;28;20250;-81
2021/10/15 01:10:13;;;;;;;1.60;1.50;;;11.90;99.90;;;;;;5097945;28;20441;-80
2021/10/15 01:12:41;;;;;;;1.67;0.90;;;11.90;99.90;;;;;;5098221;28;20216;-80
2021/10/15 01:15:09;;;;;;;0.50;0.40;;;11.90;99.90;;;;;;5098162;28;20211;-81
2021/10/15 01:17:35;;;;;;;0.82;0.60;;;11.90;99.90;;;;;;5098632;28;20201;-81
2021/10/15 01:20:04;;;;;;;0.60;0.50;;;11.80;99.90;;;;;;5097618;28;20196;-81
2021/10/15 01:22:32;;;;;;;0.50;0.40;;;11.80;99.90;;;;;;5098611;28;20215;-80
2021/10/15 01:24:59;;;;;;;6.57;1.35;;;11.80;99.90;;;;;;5098116;28;20202;-81
2021/10/15 01:27:26;;;;;;;0.50;0.40;;;11.80;99.90;;;;;;5098191;28;20200;-81
2021/10/15 01:29:54;;;;;;;1.45;0.70;;;11.80;99.90;;;;;;5097729;28;20207;-81
2021/10/15 01:32:21;;;;;;;1.88;1.10;;;11.70;99.90;;;;;;5097605;28;20231;-80
2021/10/15 01:34:48;;;;;;;0.50;0.40;;;11.70;99.90;;;;;;5098087;28;20205;-81
2021/10/15 01:37:16;;;;;;;4.03;2.40;;;11.70;99.90;;;;;;5097445;28;20453;-81
2021/10/15 01:39:44;;;;;;;1.42;1.35;;;11.70;99.90;;;;;;5096105;28;20302;-80
2021/10/15 01:42:53;;;;;;;0.68;0.63;;;11.60;99.90;;;;;;5097869;28;20208;-80
2021/10/15 01:44:58;;;;;;;0.50;0.50;;;11.60;99.90;;;;;;5097364;28;20254;-80
2021/10/15 01:47:25;;;;;;;0.50;0.40;;;11.60;99.90;;;;;;5097515;28;20664;-80
2021/10/15 01:49:51;;;;;;;2.17;1.73;;;11.60;99.90;;;;;;5097476;28;20569;-81
2021/10/15 01:52:19;;;;;;;0.85;0.85;;;11.60;99.90;;;;;;5097475;28;20225;-80
2021/10/15 01:54:46;;;;;;;2.80;1.95;;;11.60;99.90;;;;;;5097460;28;20204;-81
2021/10/15 01:57:13;;;;;;;0.50;0.40;;;11.50;99.90;;;;;;5097381;28;20833;-80
2021/10/15 01:59:40;;;;;;;0.60;0.52;;;11.50;99.90;;;;;;5103307;22;20850;-78
2021/10/15 02:02:06;;;;;;;0.50;0.40;;;11.50;99.90;;;;;;5083802;28;20188;-78
2021/10/15 02:04:33;;;;;;;2.53;0.70;;;11.50;99.90;;;;;;5076929;28;20208;-78
2021/10/15 02:07:00;;;;;;;1.30;1.20;;;11.50;99.90;;;;;;5076983;28;20209;-79
2021/10/15 02:09:28;;;;;;;4.38;3.10;;;11.50;99.90;;;;;;5076107;28;20681;-78
2021/10/15 02:11:55;;;;;;;1.45;1.10;;;11.50;99.90;;;;;;5074928;28;20227;-77
2021/10/15 02:14:21;;;;;;;0.50;0.43;;;11.40;99.90;;;;;;5075373;28;20523;-78
2021/10/15 02:16:48;;;;;;;0.70;0.70;;;11.40;99.90;;;;;;5075215;28;20198;-78
2021/10/15 02:19:15;;;;;;;1.00;0.98;;;11.40;99.90;;;;;;5076435;28;20215;-78
2021/10/15 02:21:42;;;;;;;1.35;1.25;;;11.40;99.90;;;;;;5075972;28;20191;-78
2021/10/15 02:24:09;;;;;;;6.65;1.38;;;11.40;99.90;;;;;;5075651;28;20204;-79
2021/10/15 02:26:37;;;;;;;2.05;0.82;;;11.40;99.90;;;;;;5075528;28;20193;-78
2021/10/15 02:29:03;;;;;;;2.55;2.00;;;11.30;99.90;;;;;;5076393;28;20213;-77
2021/10/15 02:31:30;;;;;;;4.95;1.40;;;11.30;99.90;;;;;;5075681;28;20627;-78
2021/10/15 02:33:57;;;;;;;1.08;1.02;;;11.30;99.90;;;;;;5075929;28;20212;-77
2021/10/15 02:36:24;;;;;;;1.23;1.05;;;11.30;99.90;;;;;;5075477;28;20192;-78
2021/10/15 02:38:51;;;;;;;0.50;0.43;;;11.30;99.90;;;;;;5075413;28;20216;-78
2021/10/15 02:41:18;;;;;;;1.80;1.70;;;11.30;99.90;;;;;;5075147;28;20677;-78
2021/10/15 02:43:46;;;;;;;0.50;0.40;;;11.30;99.90;;;;;;5075675;28;20212;-78
2021/10/15 02:46:13;;;;;;;1.30;1.30;;;11.20;99.90;;;;;;5076114;28;20565;-78
2021/10/15 02:48:40;;;;;;;2.60;1.73;;;11.20;99.90;;;;;;5075450;28;20210;-78
2021/10/15 02:51:06;;;;;;;1.83;1.48;;;11.20;99.90;;;;;;5074977;28;20239;-78
2021/10/15 02:53:33;;;;;;;0.68;0.68;;;11.10;99.90;;;;;;5075247;28;20212;-79
2021/10/15 02:56:00;;;;;;;1.40;1.30;;;11.10;99.90;;;;;;5077258;28;20207;-78
2021/10/15 02:58:27;;;;;;;4.32;2.35;;;11.10;99.90;;;;;;5075323;28;20201;-78
2021/10/15 03:00:55;;;;;;;1.27;1.27;;;11.10;99.90;;;;;;5074364;28;20227;-78
2021/10/15 03:03:21;;;;;;;1.00;0.90;;;11.00;99.90;;;;;;5074075;28;20193;-78
2021/10/15 03:05:48;;;;;;;2.08;1.98;;;11.00;99.90;;;;;;5074350;28;20689;-78
2021/10/15 03:08:15;;;;;;;0.50;0.40;;;11.00;99.90;;;;;;5073968;28;20288;-78
2021/10/15 03:10:42;;;;;;;0.98;0.85;;;11.00;99.90;;;;;;5075126;28;20224;-78
2021/10/15 03:13:09;;;;;;;1.70;1.63;;;11.00;99.90;;;;;;5075276;28;20215;-78
2021/10/15 03:15:35;;;;;;;3.08;0.70;;;11.00;99.90;;;;;;5074636;28;20201;-78
2021/10/15 03:18:03;;;;;;;0.85;0.85;;;11.00;99.90;;;;;;5075090;28;20197;-78
2021/10/15 03:20:30;;;;;;;1.50;1.40;;;11.00;99.90;;;;;;5074819;28;20225;-78
2021/10/15 03:22:57;;;;;;;2.15;0.70;;;11.00;99.90;;;;;;5075819;28;20200;-78
2021/10/15 03:25:24;;;;;;;1.27;1.17;;;11.00;99.90;;;;;;5074951;28;20577;-78
2021/10/15 03:27:50;;;;;;;2.50;2.38;;;11.00;99.90;;;;;;5075656;28;20209;-77
2021/10/15 03:30:17;;;;;;;2.22;2.13;;;11.00;99.90;;;;;;5074559;28;20217;-78
2021/10/15 03:32:44;;;;;;;1.60;1.05;;;11.00;99.90;;;;;;5073340;28;20308;-78
2021/10/15 03:35:12;;;;;;;2.10;1.38;;;11.00;99.90;;;;;;5074199;28;20217;-78
2021/10/15 03:37:39;;;;;;;1.15;1.05;;;11.00;99.90;;;;;;5074935;28;20199;-79
2021/10/15 03:40:08;;;;;;;2.50;2.30;;;11.00;99.90;;;;;;5074230;28;20226;-77
2021/10/15 03:42:35;;;;;;;1.80;1.35;;;11.00;99.90;;;;;;5073746;28;20200;-78
2021/10/15 03:45:02;;;;;;;0.60;0.60;;;11.00;99.90;;;;;;5073864;28;20232;-78
2021/10/15 03:47:28;;;;;;;0.82;0.82;;;11.00;99.90;;;;;;5074232;28;20202;-78
2021/10/15 03:49:55;;;;;;;1.65;1.55;;;11.00;99.90;;;;;;5074321;28;20706;-79
2021/10/15 03:52:23;;;;;;;0.60;0.50;;;11.00;99.90;;;;;;5073318;28;20230;-77
2021/10/15 03:54:50;;;;;;;3.03;1.58;;;11.00;99.90;;;;;;5074027;28;20226;-78
2021/10/15 03:57:17;;;;;;;3.97;2.83;;;10.90;99.90;;;;;;5074427;28;20577;-78
2021/10/15 03:59:43;;;;;;;2.25;2.15;;;10.90;99.90;;;;;;5072737;28;20238;-78
2021/10/15 04:02:10;;;;;;;0.77;0.77;;;10.90;99.90;;;;;;5073425;28;20231;-79
2021/10/15 04:04:37;;;;;;;2.03;1.85;;;10.90;99.90;;;;;;5074901;28;20658;-78
2021/10/15 04:07:04;;;;;;;1.88;1.77;;;10.90;99.90;;;;;;5075829;28;20200;-78
2021/10/15 04:09:32;;;;;;;1.95;1.83;;;10.90;99.90;;;;;;5074414;28;20223;-77
2021/10/15 04:11:59;;;;;;;1.42;1.02;;;10.90;99.90;;;;;;5074944;28;20217;-78
2021/10/15 04:14:26;;;;;;;1.95;1.27;;;10.90;99.90;;;;;;5074433;28;20199;-78
2021/10/15 04:16:53;;;;;;;1.13;0.70;;;10.90;99.90;;;;;;5076341;28;20200;-79
2021/10/15 04:19:19;;;;;;;1.27;1.17;;;10.90;99.90;;;;;;5074521;28;20211;-78
2021/10/15 04:21:46;;;;;;;2.97;2.20;;;10.90;99.90;;;;;;5074278;28;20193;-78
2021/10/15 04:24:13;;;;;;;0.73;0.68;;;10.90;99.90;;;;;;5073362;28;20192;-77
2021/10/15 04:26:41;;;;;;;0.90;0.90;;;10.90;99.90;;;;;;5074627;28;20477;-77
2021/10/15 04:29:08;;;;;;;1.00;1.00;;;10.90;99.90;;;;;;5074378;28;20587;-78
2021/10/15 04:31:35;;;;;;;2.80;1.92;;;10.90;99.90;;;;;;5073520;28;20211;-78
2021/10/15 04:34:02;;;;;;;2.70;2.50;;;10.90;99.90;;;;;;5074432;28;20227;-78
2021/10/15 04:36:29;;;;;;;0.70;0.70;;;10.90;99.90;;;;;;5073632;28;20279;-78
2021/10/15 04:38:56;;;;;;;4.00;1.95;;;10.90;99.90;;;;;;5074332;28;20741;-78
2021/10/15 04:41:22;;;;;;;0.50;0.40;;;10.90;99.90;;;;;;5074692;28;20209;-78
2021/10/15 04:43:51;;;;;;;2.05;1.90;;;10.90;99.90;;;;;;5074511;28;20193;-78
2021/10/15 04:46:17;;;;;;;5.57;1.55;;;10.90;99.90;;;;;;5073965;28;20598;-77
2021/10/15 04:48:44;;;;;;;0.85;0.70;;;10.90;99.90;;;;;;5074329;28;20201;-78
2021/10/15 04:51:11;;;;;;;0.50;0.50;;;10.90;99.90;;;;;;5073470;28;20201;-78
2021/10/15 04:53:37;;;;;;;3.28;2.88;;;10.90;99.90;;;;;;5073975;28;20208;-78
2021/10/15 04:56:05;;;;;;;1.77;1.17;;;10.90;99.90;;;;;;5074186;28;20197;-78
2021/10/15 04:58:31;;;;;;;1.10;1.10;;;10.90;99.90;;;;;;5072779;28;20201;-77
2021/10/15 05:00:59;;;;;;;1.08;1.05;;;10.90;99.90;;;;;;5072255;28;20196;-78
2021/10/15 05:03:26;;;;;;;0.93;0.93;;;10.90;99.90;;;;;;5073618;28;20198;-79
2021/10/15 05:05:53;;;;;;;0.60;0.60;;;10.90;99.90;;;;;;5074014;28;20196;-79
2021/10/15 05:08:21;;;;;;;1.25;1.05;;;10.90;99.90;;;;;;5073271;28;20197;-77
2021/10/15 05:10:48;;;;;;;5.40;1.80;;;10.90;99.90;;;;;;5074309;28;20221;-78
2021/10/15 05:13:17;;;;;;;1.60;1.50;;;10.90;99.90;;;;;;5075638;28;20220;-77
2021/10/15 05:15:45;;;;;;;0.70;0.70;;;10.90;99.90;;;;;;5084396;28;20197;-77
2021/10/15 05:18:13;;;;;;;2.22;2.03;;;10.90;99.90;;;;;;5077560;28;20205;-77
2021/10/15 05:20:41;;;;;;;19.23;14.73;;;10.90;99.90;;;;;;5076821;28;20224;-77
2021/10/15 05:23:08;;;;;;;0.90;0.65;;;10.90;99.90;;;;;;5077140;28;20222;-76
2021/10/15 05:25:35;;;;;;;0.50;0.50;;;10.90;99.90;;;;;;5078002;28;20267;-78
2021/10/15 05:28:02;;;;;;;1.70;1.52;;;10.90;99.90;;;;;;5077940;28;20204;-77
2021/10/15 05:30:29;;;;;;;1.92;1.25;;;11.00;99.90;;;;;;5077679;28;20220;-79
2021/10/15 05:32:55;;;;;;;2.08;1.98;;;10.90;99.90;;;;;;5077103;28;20562;-78
2021/10/15 05:35:24;;;;;;;1.65;1.05;;;11.00;99.90;;;;;;5077313;28;20581;-78
2021/10/15 05:37:51;;;;;;;1.90;1.13;;;11.00;99.90;;;;;;5077393;28;20212;-78
2021/10/15 05:40:18;;;;;;;2.17;1.65;;;11.00;99.90;;;;;;5077525;28;20224;-79
2021/10/15 05:42:45;;;;;;;2.97;2.78;;;11.00;99.90;;;;;;5077719;28;20220;-79
2021/10/15 05:45:12;;;;;;;4.93;1.33;;;11.00;99.90;;;;;;5077402;28;20674;-77
2021/10/15 05:47:39;;;;;;;1.55;1.42;;;11.00;99.90;;;;;;5077421;28;20442;-77
2021/10/15 05:50:08;;;;;;;2.17;2.03;;;11.00;99.90;;;;;;5076815;28;20717;-77
2021/10/15 05:52:39;;;;;;;2.83;2.72;;;11.10;99.90;;;;;;5077270;28;20472;-78
2021/10/15 05:55:18;;;;;;;0.50;0.40;;;11.10;99.90;;;;;;5077267;28;20619;-78
2021/10/15 06:00:31;;;;;;;0.50;0.50;;;11.10;99.90;;;;;;5075379;28;20305;-77
2021/10/15 06:02:58;;;;;;;4.15;3.22;;;11.10;99.90;;;;;;5074162;28;20668;-77
2021/10/15 06:16:30;;;;;;;5.00;3.13;;;11.20;99.90;;;;;;5070933;28;20181;-76
2021/10/15 06:19:04;;;;;;;0.50;0.40;;;11.20;99.90;;;;;;5071302;28;20275;-77
2021/10/15 06:21:31;;;;;;;4.05;2.03;;;11.20;99.90;;;;;;5069787;28;20188;-77
2021/10/15 06:24:00;;;;;;;0.90;0.73;;;11.30;99.90;;;;;;5070258;28;20209;-78
2021/10/15 06:26:26;;;;;;;0.70;0.60;;;11.30;99.90;;;;;;5069808;28;20386;-78
2021/10/15 06:28:53;;;;;;;1.83;1.73;;;11.30;99.90;;;;;;5070049;28;20286;-77
2021/10/15 06:31:20;;;;;;;5.20;1.38;;;11.30;99.90;;;;;;5069544;28;20543;-77
2021/10/15 06:33:47;;;;;;;1.23;1.13;;;11.30;99.90;;;;;;5069755;28;20197;-77
2021/10/15 06:36:14;;;;;;;1.40;1.17;;;11.30;99.90;;;;;;5069732;28;20193;-78
2021/10/15 06:38:40;;;;;;;0.73;0.73;;;11.30;99.90;;;;;;5070134;28;20395;-78
2021/10/15 06:41:09;;;;;;;0.52;0.52;;;11.30;99.90;;;;;;5071273;28;20204;-77
2021/10/15 06:43:35;;;;;;;5.30;2.78;;;11.30;99.90;;;;;;5070062;28;20203;-78
2021/10/15 06:46:02;;;;;;;1.50;1.40;;;11.40;99.90;;;;;;5069914;28;20211;-77
2021/10/15 06:48:29;;;;;;;0.77;0.73;;;11.40;99.90;;;;;;5071118;28;20193;-77
2021/10/15 06:50:56;;;;;;;3.15;2.70;;;11.40;99.90;;;;;;5072057;28;20195;-77
2021/10/15 06:53:22;;;;;;;2.35;1.77;;;11.40;99.90;;;;;;5074094;28;20201;-78
2021/10/15 06:55:49;;;;;;;7.75;2.70;;;11.50;99.90;;;;;;5071395;28;20204;-76
2021/10/15 06:58:18;;;;;;;2.10;1.98;;;11.50;99.90;;;;;;5069012;28;20188;-77
2021/10/15 07:00:45;;;;;;;0.80;0.80;;;11.50;99.90;;;;;;5067887;28;20218;-77
2021/10/15 07:03:16;;;;;;;1.47;0.90;;;11.50;99.90;;;;;;5068329;28;20589;-78
2021/10/15 07:05:43;;;;;;;1.05;0.85;;;11.50;99.90;;;;;;5068708;28;20446;-77
2021/10/15 07:08:10;;;;;;;2.35;2.20;;;11.50;99.90;;;;;;5068337;28;20668;-77
2021/10/15 07:10:37;;;;;;;1.48;1.38;;;11.60;99.90;;;;;;5068201;28;20224;-77
2021/10/15 07:13:04;;;;;;;0.50;0.40;;;11.50;99.90;;;;;;5068209;28;20204;-78
2021/10/15 07:15:32;;;;;;;3.40;1.63;;;11.50;99.90;;;;;;5068293;28;20197;-77
2021/10/15 07:18:00;;;;;;;0.50;0.40;;;11.60;99.90;;;;;;5064649;28;20579;-76
2021/10/15 07:20:28;;;;;;;2.30;2.00;;;11.60;99.90;;;;;;5054029;28;20221;-76
2021/10/15 07:22:55;;;;;;;1.05;0.70;;;11.60;99.90;;;;;;5055945;28;20191;-77
2021/10/15 07:25:22;;;;;;;15.68;1.08;;;11.60;99.90;;;;;;5055604;28;20280;-76
2021/10/15 07:27:49;;;;;;;0.82;0.80;;;11.60;99.90;;;;;;5054270;28;20218;-76
2021/10/15 07:30:17;;;;;;;1.63;1.50;;;11.70;99.90;;;;;;5054610;28;20218;-74
2021/10/15 07:32:46;;;;;;;2.83;1.80;;;11.70;99.90;;;;;;5054994;28;20686;-77
2021/10/15 07:35:13;;;;;;;3.75;1.85;;;11.70;99.90;;;;;;5054878;28;20549;-77
2021/10/15 07:37:40;;;;;;;0.70;0.65;;;11.70;99.90;;;;;;5055011;28;20205;-76
2021/10/15 07:40:08;;;;;;;2.25;2.05;;;11.80;99.90;;;;;;5054299;28;20218;-76
2021/10/15 07:42:35;;;;;;;1.23;1.23;;;11.80;99.90;;;;;;5054165;28;20201;-76
2021/10/15 07:45:02;;;;;;;2.20;2.10;;;11.80;99.90;;;;;;5054658;28;20198;-76
2021/10/15 07:47:29;;;;;;;1.45;1.35;;;11.80;99.90;;;;;;5054916;28;20218;-77
2021/10/15 07:49:57;;;;;;;0.50;0.40;;;11.90;99.90;;;;;;5054966;28;20224;-77
2021/10/15 07:52:24;;;;;;;1.33;1.23;;;11.90;99.90;;;;;;5053828;28;20226;-77
2021/10/15 07:54:51;;;;;;;0.65;0.65;;;11.80;99.90;;;;;;5054684;28;20202;-77
2021/10/15 07:57:18;;;;;;;4.30;1.88;;;11.90;99.90;;;;;;5054032;28;20194;-77
2021/10/15 07:59:44;;;;;;;2.90;2.10;;;11.90;99.90;;;;;;5050575;22;20223;-81
2021/10/15 08:02:11;;;;;;;1.27;0.70;;;11.90;99.90;;;;;;5014961;28;20930;-81
2021/10/15 08:04:38;;;;;;;1.08;0.90;;;11.90;99.90;;;;;;5018553;28;20196;-82
2021/10/15 08:07:06;;;;;;;1.50;1.40;;;12.00;99.90;;;;;;5017996;28;20218;-81
2021/10/15 08:09:33;;;;;;;34.85;3.08;;;12.10;99.90;;;;;;5025867;28;20470;-82
2021/10/15 08:12:00;;;;;;;4.65;2.40;;;12.20;99.90;;;;;;5037932;28;20200;-82
2021/10/15 08:14:27;;;;;;;0.50;0.40;;;12.30;99.90;;;;;;5038068;28;20206;-81
2021/10/15 08:16:54;;;;;;;0.50;0.40;;;12.40;99.90;;;;;;5038626;28;20220;-79
2021/10/15 08:19:20;;;;;;;0.80;0.77;;;12.40;99.90;;;;;;5038929;28;20465;-82
2021/10/15 08:21:47;;;;;;;0.60;0.50;;;12.50;99.90;;;;;;5038132;28;20538;-81
2021/10/15 08:24:15;;;;;;;0.50;0.40;;;12.60;99.90;;;;;;5038804;28;20448;-82
2021/10/15 08:26:42;;;;;;;3.33;2.00;;;12.60;99.90;;;;;;5038534;28;20522;-82
2021/10/15 08:29:09;;;;;;;13.60;1.23;;;12.60;99.90;;;;;;5038800;28;20462;-82
2021/10/15 08:31:36;;;;;;;1.00;1.00;;;12.60;99.90;;;;;;5037282;28;20443;-82
2021/10/15 08:34:07;;;;;;;2.53;2.43;;;12.60;99.90;;;;;;5038072;28;20869;-81
2021/10/15 08:36:34;;;;;;;0.55;0.45;;;12.60;99.90;;;;;;5039450;28;20431;-82
2021/10/15 08:39:01;;;;;;;0.55;0.55;;;12.60;99.90;;;;;;5038889;28;20572;-83
2021/10/15 08:41:29;;;;;;;1.90;0.82;;;12.60;99.90;;;;;;5038408;28;20206;-82
2021/10/15 08:43:58;;;;;;;1.58;1.48;;;12.50;99.90;;;;;;5038968;28;20211;-82
2021/10/15 08:46:25;;;;;;;2.27;1.60;;;12.40;99.90;;;;;;5039159;28;20720;-83
2021/10/15 08:48:52;;;;;;;1.70;1.38;;;12.30;99.90;;;;;;5038485;28;20476;-82
2021/10/15 08:51:21;;;;;;;0.80;0.80;;;12.20;99.90;;;;;;5037575;28;20202;-81
2021/10/15 08:53:51;;;;;;;1.33;1.13;;;12.10;99.90;;;;;;5037746;28;20195;-79
2021/10/15 08:56:18;;;;;;;2.83;2.65;;;12.00;99.90;;;;;;5037647;28;20435;-80
2021/10/15 08:58:48;;;;;;;0.68;0.68;;;11.90;99.90;;;;;;5037200;28;20197;-82
2021/10/15 09:01:15;;;;;;;0.50;0.40;;;11.80;99.90;;;;;;5036003;28;20253;-82
2021/10/15 09:03:42;;;;;;;0.60;0.50;;;11.80;99.90;;;;;;5037259;28;20274;-83
2021/10/15 09:06:11;;;;;;;0.50;0.40;;;11.80;99.90;;;;;;5037587;28;20449;-83
2021/10/15 09:08:49;;;;;;;0.50;0.40;;;11.90;99.90;;;;;;5037523;28;20237;-81
2021/10/15 09:11:31;;;;;;;0.50;0.40;;;11.90;99.90;;;;;;5036977;28;20282;-81
2021/10/15 09:14:14;;;;;;;0.50;0.40;;;11.90;99.90;;;;;;5037022;28;20184;-81
2021/10/15 09:16:56;;;;;;;0.60;0.57;;;12.00;99.90;;;;;;5038050;28;20202;-81
2021/10/15 09:19:28;;;;;;;0.50;0.40;;;12.10;99.90;;;;;;5037212;28;20221;-82
2021/10/15 09:22:26;;;;;;;0.50;0.40;;;12.10;99.90;;;;;;5036864;28;20446;-82
2021/10/15 09:24:55;;;;;;;3.53;1.88;;;12.20;99.90;;;;;;5044614;28;20202;-82
2021/10/15 09:27:25;;;;;;;0.50;0.40;;;12.20;99.90;;;;;;5036650;28;20216;-83
2021/10/15 09:29:56;;;;;;;0.60;0.60;;;12.20;99.90;;;;;;5036348;28;20222;-81
2021/10/15 09:32:25;;;;;;;2.58;2.25;;;12.30;99.90;;;;;;5036485;28;20808;-83
2021/10/15 09:34:53;;;;;;;0.60;0.60;;;12.30;99.90;;;;;;5036664;28;20202;-79
2021/10/15 09:37:22;;;;;;;1.10;0.65;;;12.30;99.90;;;;;;5037008;28;20199;-83
2021/10/15 09:39:49;;;;;;;0.60;0.60;;;12.30;99.90;;;;;;5035905;28;20230;-81
2021/10/15 09:42:29;;;;;;;0.50;0.40;;;12.30;99.90;;;;;;5036299;28;20196;-83
2021/10/15 09:45:02;;;;;;;0.50;0.40;;;12.30;99.90;;;;;;5036606;28;20657;-80
2021/10/15 09:47:29;;;;;;;0.50;0.40;;;12.40;99.90;;;;;;5036852;28;20207;-82
2021/10/15 09:49:58;;;;;;;0.50;0.40;;;12.40;99.90;;;;;;5036862;28;20214;-82
2021/10/15 09:52:33;;;;;;;0.50;0.40;;;12.40;99.90;;;;;;5035973;28;20596;-82
2021/10/15 09:55:14;;;;;;;0.50;0.40;;;12.40;99.90;;;;;;5037193;28;20386;-82
2021/10/15 09:57:42;;;;;;;0.50;0.40;;;12.50;99.90;;;;;;5036889;28;20236;-82
2021/10/15 10:00:13;;;;;;;0.57;0.57;;;12.70;99.90;;;;;;5035997;28;20251;-82
2021/10/15 10:02:40;;;;;;;0.77;0.77;;;12.80;99.90;;;;;;5036586;28;20446;-80
2021/10/15 10:05:12;;;;;;;0.50;0.40;;;12.90;99.90;;;;;;5037194;28;20196;-82
2021/10/15 10:07:39;;;;;;;0.60;0.60;;;12.90;99.90;;;;;;5036820;28;20462;-83
2021/10/15 10:10:08;;;;;;;0.50;0.40;;;13.00;99.90;;;;;;5036671;28;20222;-81
2021/10/15 10:12:37;;;;;;;0.50;0.40;;;12.90;99.90;;;;;;5037186;28;20446;-82
2021/10/15 10:15:06;;;;;;;0.50;0.40;;;12.90;99.90;;;;;;5036883;28;20449;-82
2021/10/15 10:17:39;;;;;;;0.50;0.40;;;13.00;99.90;;;;;;5036624;28;20562;-82
2021/10/15 10:20:11;;;;;;;0.50;0.40;;;13.10;99.90;;;;;;5036239;28;20476;-79
2021/10/15 10:22:46;;;;;;;0.50;0.40;;;13.10;99.90;;;;;;5036263;28;20453;-83
2021/10/15 10:25:19;;;;;;;0.50;0.40;;;13.20;99.90;;;;;;5036973;28;20435;-81
2021/10/15 10:27:45;;;;;;;0.50;0.40;;;13.30;99.90;;;;;;5036231;28;20551;-82
2021/10/15 10:30:12;;;;;;;0.50;0.40;;;13.30;99.90;;;;;;5035867;28;20458;-80
2021/10/15 10:32:40;;;;;;;0.50;0.40;;;13.20;99.90;;;;;;5036032;28;20446;-83
2021/10/15 10:35:25;;;;;;;0.50;0.40;;;13.30;99.90;;;;;;5035600;28;20446;-81
2021/10/15 10:38:25;;;;;;;0.50;0.40;;;13.50;99.90;;;;;;5036587;28;20440;-80
2021/10/15 10:41:15;;;;;;;0.50;0.50;;;13.70;99.90;;;;;;5035659;28;20537;-82
2021/10/15 10:44:13;;;;;;;0.50;0.40;;;14.00;99.90;;;;;;5036159;28;20505;-82
2021/10/15 10:46:40;;;;;;;0.50;0.40;;;14.20;99.90;;;;;;5036228;28;20415;-82
2021/10/15 10:49:23;;;;;;;0.50;0.40;;;14.40;99.90;;;;;;5023788;28;20482;-82
2021/10/15 10:52:18;;;;;;;0.50;0.40;;;14.60;99.90;;;;;;5033018;28;20575;-81
2021/10/15 10:54:46;;;;;;;0.50;0.40;;;14.70;99.90;;;;;;5035511;28;20446;-82
2021/10/15 10:57:25;;;;;;;0.50;0.40;;;14.80;99.90;;;;;;5040569;28;20866;-81
2021/10/15 10:59:53;;;;;;;0.50;0.40;;;14.70;99.90;;;;;;5040134;28;20993;-82
2021/10/15 11:02:21;;;;;;;0.50;0.40;;;14.80;99.90;;;;;;5040807;28;20975;-81
2021/10/15 11:04:57;;;;;;;0.50;0.40;;;15.30;99.90;;;;;;5039974;28;20982;-82
2021/10/15 11:07:26;;;;;;;0.50;0.30;;;15.80;99.90;;;;;;5039512;28;20464;-83
2021/10/15 11:09:55;;;;;;;0.50;0.37;;;16.40;99.90;;;;;;5040549;28;20462;-83
2021/10/15 11:12:42;;;;;;;0.50;0.40;;;16.50;99.90;;;;;;5039934;28;20448;-82
2021/10/15 11:15:10;;;;;;;0.50;0.40;;;17.10;99.90;;;;;;5040076;28;20440;-82
2021/10/15 11:17:41;;;;;;;0.50;0.30;;;17.90;99.90;;;;;;5040635;28;20814;-83
2021/10/15 11:20:11;;;;;;;0.50;0.30;;;18.00;99.90;;;;;;5039610;28;20490;-82
2021/10/15 11:22:39;;;;;;;0.50;0.40;;;18.30;99.90;;;;;;5040613;28;20454;-82
2021/10/15 11:25:08;;;;;;;0.50;0.40;;;18.50;99.90;;;;;;5039944;28;20942;-79
2021/10/15 11:27:35;;;;;;;0.50;0.30;;;18.70;99.90;;;;;;5039864;28;20440;-83
2021/10/15 11:30:04;;;;;;;0.50;0.30;;;18.70;99.90;;;;;;5040046;28;20459;-82
2021/10/15 11:32:34;;;;;;;0.50;0.30;;;18.40;99.90;;;;;;5040093;28;20973;-82
2021/10/15 11:35:06;;;;;;;0.50;0.30;;;18.20;99.90;;;;;;5040149;28;20810;-82
2021/10/15 11:37:59;;;;;;;0.50;0.30;;;18.50;99.90;;;;;;5040151;28;20446;-82
2021/10/15 11:40:29;;;;;;;0.50;0.30;;;18.70;99.90;;;;;;5029436;28;20473;-83
2021/10/15 11:43:06;;;;;;;0.50;0.30;;;19.30;99.90;;;;;;5040148;28;20445;-83
2021/10/15 11:45:35;;;;;;;0.50;0.30;;;19.60;99.90;;;;;;5040711;28;20506;-83
2021/10/15 11:48:07;;;;;;;0.50;0.40;;;19.20;99.90;;;;;;5039357;28;21006;-81
2021/10/15 11:50:36;;;;;;;0.50;0.30;;;18.50;99.90;;;;;;5039317;28;20473;-83
2021/10/15 11:53:05;;;;;;;0.50;0.30;;;18.30;99.90;;;;;;5040366;28;20441;-82
2021/10/15 11:55:35;;;;;;;0.50;0.30;;;18.90;99.90;;;;;;5040708;28;20448;-83
2021/10/15 11:58:33;;;;;;;0.50;0.30;;;20.20;99.90;;;;;;5040258;28;20442;-82
2021/10/15 12:01:13;;;;;;;0.50;0.40;;;21.40;99.90;;;;;;5040140;28;20464;-81
2021/10/15 12:03:41;;;;;;;0.60;0.50;;;21.00;99.90;;;;;;5041110;28;20454;-81
2021/10/15 12:06:19;;;;;;;0.50;0.33;;;20.60;99.90;;;;;;5043521;28;20437;-81
2021/10/15 12:08:48;;;;;;;0.50;0.30;;;19.80;99.90;;;;;;5043899;28;20488;-80
2021/10/15 12:11:44;;;;;;;0.50;0.30;;;19.60;99.90;;;;;;5043037;28;20983;-80
2021/10/15 12:14:14;;;;;;;0.50;0.30;;;19.30;99.90;;;;;;4979673;28;20542;-81
2021/10/15 12:16:49;;;;;;;0.50;0.40;;;19.00;99.90;;;;;;4979774;28;20471;-81
2021/10/15 12:19:25;;;;;;;0.50;0.30;;;18.40;99.90;;;;;;4981915;28;20690;-82
2021/10/15 12:22:00;;;;;;;0.50;0.30;;;18.30;99.90;;;;;;4982425;28;20944;-81
2021/10/15 12:24:31;;;;;;;0.50;0.30;;;18.20;99.90;;;;;;4982257;28;20841;-80
2021/10/15 12:27:07;;;;;;;0.50;0.40;;;17.90;99.90;;;;;;4982524;28;20457;-79
2021/10/15 12:29:37;;;;;;;0.50;0.30;;;17.70;99.90;;;;;;4978998;28;20506;-82
2021/10/15 12:32:16;;;;;;;0.50;0.40;;;17.60;99.90;;;;;;4977941;28;20447;-81
2021/10/15 12:35:15;;;;;;;0.50;0.40;;;17.40;99.90;;;;;;4978506;28;20431;-82
2021/10/15 12:37:45;;;;;;;0.50;0.30;;;17.20;99.90;;;;;;4978415;28;20458;-82
2021/10/15 12:40:24;;;;;;;0.50;0.40;;;17.20;99.90;;;;;;4977687;28;20462;-82
2021/10/15 12:43:03;;;;;;;2.60;2.10;;;17.20;99.90;;;;;;4978579;28;20482;-80
2021/10/15 12:45:32;;;;;;;0.50;0.30;;;17.50;99.90;;;;;;4978447;28;20439;-83
2021/10/15 12:48:01;;;;;;;0.50;0.30;;;18.10;99.90;;;;;;4979882;28;20440;-81
2021/10/15 12:50:29;;;;;;;0.50;0.40;;;18.70;99.90;;;;;;4989105;28;20461;-80
2021/10/15 12:52:56;;;;;;;0.50;0.40;;;19.40;99.90;;;;;;5034474;28;20966;-83
2021/10/15 12:55:26;;;;;;;0.50;0.30;;;19.80;99.90;;;;;;5021797;28;20447;-82
2021/10/15 12:58:02;;;;;;;0.50;0.30;;;20.80;99.90;;;;;;5022253;28;20450;-80
2021/10/15 13:00:29;;;;;;;0.50;0.40;;;21.10;99.90;;;;;;5025719;28;20483;-82
2021/10/15 13:03:07;;;;;;;0.50;0.30;;;22.00;99.90;;;;;;5041444;28;20486;-81
2021/10/15 13:05:35;;;;;;;0.50;0.30;;;23.20;99.90;;;;;;5041536;28;20460;-81
2021/10/15 13:08:02;;;;;;;0.50;0.40;;;23.40;91.70;;;;;;5041095;28;20442;-82
2021/10/15 13:10:31;;;;;;;0.50;0.30;;;23.60;90.90;;;;;;5040755;28;20990;-82